Time;durP1;ratioP1;P1;durP2;ratioP2;P2;SDS_P1;SDS_P2;PMS_P1;PMS_P2;Temp;Humidity;BMP_temperature;BMP_pressure;BME280_temperature;BME280_humidity;BME280_pressure;Samples;Min_cycle;Max_cycle;Signal;HPM_P1;HPM_P2
2024/02/28 00:01:31;;;;;;;103.30;39.80;;;3.60;99.90;;;;;;5062713;28;20029;-73
2024/02/28 00:03:57;;;;;;;101.38;39.67;;;3.60;99.90;;;;;;5063927;28;20086;-72
2024/02/28 00:06:22;;;;;;;105.60;39.40;;;3.50;99.90;;;;;;5062223;28;20021;-73
2024/02/28 00:08:50;;;;;;;105.28;40.33;;;3.50;99.90;;;;;;5062097;28;20063;-73
2024/02/28 00:11:16;;;;;;;107.38;40.53;;;3.40;99.90;;;;;;5061721;28;20021;-73
2024/02/28 00:13:42;;;;;;;107.78;41.45;;;3.40;99.90;;;;;;5062710;28;20032;-73
2024/02/28 00:16:07;;;;;;;115.78;43.22;;;3.40;99.90;;;;;;5063176;28;20037;-73
2024/02/28 00:18:33;;;;;;;104.35;39.92;;;3.40;99.90;;;;;;5062882;28;20033;-73
2024/02/28 00:20:58;;;;;;;106.93;41.58;;;3.40;99.90;;;;;;5062331;28;20044;-72
2024/02/28 00:23:24;;;;;;;105.63;41.78;;;3.50;99.90;;;;;;5062466;28;20028;-74
2024/02/28 00:25:50;;;;;;;114.50;41.42;;;3.50;99.90;;;;;;5063063;28;20025;-74
2024/02/28 00:28:15;;;;;;;112.05;41.45;;;3.60;99.90;;;;;;5063014;28;20025;-74
2024/02/28 00:30:41;;;;;;;106.13;41.67;;;3.50;99.90;;;;;;5063911;28;20504;-75
2024/02/28 00:33:06;;;;;;;110.22;39.58;;;3.60;99.90;;;;;;5061668;28;20051;-75
2024/02/28 00:35:33;;;;;;;97.60;38.60;;;3.60;99.90;;;;;;5064154;28;20028;-75
2024/02/28 00:37:59;;;;;;;99.00;39.90;;;3.60;99.90;;;;;;5062525;28;20084;-74
2024/02/28 00:40:25;;;;;;;103.72;39.47;;;3.70;99.90;;;;;;5063984;28;20064;-74
2024/02/28 00:42:51;;;;;;;101.03;40.15;;;3.70;99.90;;;;;;5062384;28;20099;-74
2024/02/28 00:45:17;;;;;;;100.93;39.90;;;3.70;99.90;;;;;;5063474;28;20041;-75
2024/02/28 00:47:42;;;;;;;100.80;40.38;;;3.70;99.90;;;;;;5064545;28;20013;-74
2024/02/28 00:50:08;;;;;;;101.07;39.58;;;3.70;99.90;;;;;;5061154;28;20047;-74
2024/02/28 00:52:34;;;;;;;100.10;38.97;;;3.70;99.90;;;;;;5063655;28;20398;-75
2024/02/28 00:54:59;;;;;;;106.32;39.58;;;3.70;99.90;;;;;;5061961;28;20035;-76
2024/02/28 00:57:25;;;;;;;101.95;38.65;;;3.80;99.90;;;;;;5063706;28;20013;-75
2024/02/28 00:59:51;;;;;;;100.90;38.78;;;3.80;99.90;;;;;;5063795;28;20128;-75
2024/02/28 01:02:16;;;;;;;96.13;37.00;;;3.80;99.90;;;;;;5063793;28;20025;-74
2024/02/28 01:04:42;;;;;;;97.85;38.15;;;3.80;99.90;;;;;;5062116;28;20036;-75
2024/02/28 01:07:08;;;;;;;97.35;37.83;;;3.80;99.90;;;;;;5061518;28;20064;-75
2024/02/28 01:09:33;;;;;;;97.40;38.05;;;3.70;99.90;;;;;;5061381;28;20040;-76
2024/02/28 01:11:59;;;;;;;96.70;37.40;;;3.60;99.90;;;;;;5062234;28;20021;-74
2024/02/28 01:14:25;;;;;;;95.18;36.15;;;3.60;99.90;;;;;;5060350;28;20048;-74
2024/02/28 01:16:50;;;;;;;88.40;34.08;;;3.50;99.90;;;;;;5062314;28;20025;-75
2024/02/28 01:19:16;;;;;;;96.25;36.90;;;3.50;99.90;;;;;;5062062;28;20083;-74
2024/02/28 01:21:41;;;;;;;92.10;35.35;;;3.50;99.90;;;;;;5063340;28;20033;-73
2024/02/28 01:24:07;;;;;;;94.88;37.35;;;3.40;99.90;;;;;;5060466;28;20025;-74
2024/02/28 01:26:33;;;;;;;95.40;36.00;;;3.40;99.90;;;;;;5061334;28;20089;-75
2024/02/28 01:28:58;;;;;;;103.13;38.50;;;3.30;99.90;;;;;;5062058;28;20108;-74
2024/02/28 01:31:24;;;;;;;87.40;35.42;;;3.30;99.90;;;;;;5061468;28;20013;-74
2024/02/28 01:33:49;;;;;;;92.85;36.50;;;3.30;99.90;;;;;;5060748;28;20033;-74
2024/02/28 01:36:15;;;;;;;98.53;37.30;;;3.20;99.90;;;;;;5061502;28;20025;-75
2024/02/28 01:38:40;;;;;;;92.32;35.60;;;3.20;99.90;;;;;;5060714;28;20024;-73
2024/02/28 01:41:06;;;;;;;96.20;37.10;;;3.20;99.90;;;;;;5062648;28;20048;-74
2024/02/28 01:43:32;;;;;;;104.80;37.42;;;3.20;99.90;;;;;;5062555;28;20825;-73
2024/02/28 01:46:03;;;;;;;96.05;35.42;;;3.20;99.90;;;;;;5062154;28;20027;-72
2024/02/28 01:48:29;;;;;;;93.70;36.92;;;3.20;99.90;;;;;;5063000;28;20036;-72
2024/02/28 01:50:55;;;;;;;96.43;36.63;;;3.30;99.90;;;;;;5061345;28;20051;-73
2024/02/28 01:53:21;;;;;;;93.85;37.05;;;3.30;99.90;;;;;;5060588;28;20024;-74
2024/02/28 01:55:47;;;;;;;99.40;37.42;;;3.30;99.90;;;;;;5062706;28;20021;-73
2024/02/28 01:58:13;;;;;;;97.22;37.70;;;3.40;99.90;;;;;;5061268;28;20411;-73
2024/02/28 02:00:39;;;;;;;96.45;36.55;;;3.40;99.90;;;;;;5059677;28;20037;-72
2024/02/28 02:03:05;;;;;;;103.40;37.78;;;3.40;99.90;;;;;;5061115;28;20071;-73
2024/02/28 02:05:31;;;;;;;98.50;37.10;;;3.40;99.90;;;;;;5061205;28;20017;-74
2024/02/28 02:08:01;;;;;;;98.88;37.50;;;3.40;99.90;;;;;;5060874;28;20043;-74
2024/02/28 02:10:26;;;;;;;96.95;36.92;;;3.40;99.90;;;;;;5060343;28;20059;-73
2024/02/28 02:12:55;;;;;;;98.43;37.10;;;3.40;99.90;;;;;;5061417;28;20148;-74
2024/02/28 02:15:20;;;;;;;97.50;36.90;;;3.40;99.90;;;;;;5060621;28;20025;-73
2024/02/28 02:17:46;;;;;;;95.82;37.70;;;3.40;99.90;;;;;;5062457;28;20044;-73
2024/02/28 02:20:14;;;;;;;95.45;37.55;;;3.40;99.90;;;;;;5060816;28;20071;-73
2024/02/28 02:22:40;;;;;;;99.63;37.92;;;3.50;99.90;;;;;;5060708;28;20025;-74
2024/02/28 02:25:06;;;;;;;96.40;37.15;;;3.50;99.90;;;;;;5061844;28;20084;-73
2024/02/28 02:27:31;;;;;;;102.70;39.17;;;3.50;99.90;;;;;;5060624;28;20030;-74
2024/02/28 02:29:57;;;;;;;96.47;37.70;;;3.50;99.90;;;;;;5062027;28;20056;-73
2024/02/28 02:32:22;;;;;;;96.85;38.67;;;3.50;99.90;;;;;;5060605;28;20028;-73
2024/02/28 02:34:48;;;;;;;96.15;36.78;;;3.60;99.90;;;;;;5060817;28;20428;-73
2024/02/28 02:37:13;;;;;;;89.78;35.42;;;3.60;99.90;;;;;;5061786;28;20040;-73
2024/02/28 02:39:39;;;;;;;96.15;37.25;;;3.70;99.90;;;;;;5061995;28;20043;-74
2024/02/28 02:42:05;;;;;;;84.35;33.88;;;3.70;99.90;;;;;;5062093;28;20033;-73
2024/02/28 02:44:30;;;;;;;89.72;34.85;;;3.70;99.90;;;;;;5061474;28;20040;-74
2024/02/28 02:46:56;;;;;;;85.47;32.83;;;3.70;99.90;;;;;;5059869;28;20037;-73
2024/02/28 02:49:21;;;;;;;87.63;34.67;;;3.70;99.90;;;;;;5061214;28;20032;-73
2024/02/28 02:51:47;;;;;;;83.43;34.13;;;3.70;99.90;;;;;;5061615;28;20039;-73
2024/02/28 02:54:13;;;;;;;83.53;32.38;;;3.70;99.90;;;;;;5061287;28;20041;-74
2024/02/28 02:56:42;;;;;;;86.63;34.50;;;3.70;99.90;;;;;;5059851;28;20056;-74
2024/02/28 02:59:09;;;;;;;80.15;32.40;;;3.70;99.90;;;;;;5060890;28;20079;-74
2024/02/28 03:01:35;;;;;;;84.15;33.53;;;3.70;99.90;;;;;;5061007;28;20025;-73
2024/02/28 03:04:01;;;;;;;77.53;31.27;;;3.70;99.90;;;;;;5061856;28;20021;-74
2024/02/28 03:06:27;;;;;;;79.38;30.50;;;3.90;99.90;;;;;;5064835;28;20025;-73
2024/02/28 03:08:52;;;;;;;83.32;32.80;;;3.80;99.90;;;;;;5065737;28;20053;-73
2024/02/28 03:11:18;;;;;;;74.85;30.63;;;3.80;99.90;;;;;;5065385;28;20031;-73
2024/02/28 03:13:43;;;;;;;80.90;31.80;;;3.80;99.90;;;;;;5065623;28;20029;-73
2024/02/28 03:16:09;;;;;;;78.28;30.80;;;3.70;99.90;;;;;;5065802;28;20024;-74
2024/02/28 03:18:35;;;;;;;81.50;31.60;;;3.80;99.90;;;;;;5064008;28;20025;-73
2024/02/28 03:21:01;;;;;;;78.53;31.38;;;3.70;99.90;;;;;;5065785;28;20429;-73
2024/02/28 03:23:27;;;;;;;80.13;31.02;;;3.70;99.90;;;;;;5063623;28;20029;-73
2024/02/28 03:25:52;;;;;;;76.03;30.60;;;3.70;99.90;;;;;;5065348;28;20029;-73
2024/02/28 03:28:18;;;;;;;74.13;30.20;;;3.70;99.90;;;;;;5064320;28;20032;-74
2024/02/28 03:30:44;;;;;;;69.53;29.25;;;3.70;99.90;;;;;;5065361;28;20021;-72
2024/02/28 03:33:09;;;;;;;68.95;28.02;;;3.80;99.90;;;;;;5065082;28;20024;-73
2024/02/28 03:35:35;;;;;;;73.80;29.27;;;3.70;99.90;;;;;;5065495;28;20047;-73
2024/02/28 03:38:00;;;;;;;77.93;31.10;;;3.80;99.90;;;;;;5065529;28;20021;-73
2024/02/28 03:40:26;;;;;;;75.18;30.02;;;3.80;99.90;;;;;;5064203;28;20044;-73
2024/02/28 03:42:51;;;;;;;74.25;29.65;;;3.80;99.90;;;;;;5063971;28;20021;-73
2024/02/28 03:45:17;;;;;;;80.60;30.77;;;3.80;99.90;;;;;;5064850;28;20032;-74
2024/02/28 03:47:42;;;;;;;71.55;29.27;;;3.80;99.90;;;;;;5065029;28;20021;-73
2024/02/28 03:50:08;;;;;;;72.93;28.35;;;3.80;99.90;;;;;;5065156;28;20029;-73
2024/02/28 03:52:34;;;;;;;78.65;30.02;;;3.80;99.90;;;;;;5063711;28;20036;-74
2024/02/28 03:54:59;;;;;;;72.72;28.50;;;3.80;99.90;;;;;;5065201;28;20092;-73
2024/02/28 03:57:25;;;;;;;72.22;29.60;;;3.70;99.90;;;;;;5064083;28;20077;-73
2024/02/28 03:59:51;;;;;;;74.97;31.30;;;3.70;99.90;;;;;;5063614;28;20109;-73
2024/02/28 04:02:16;;;;;;;77.10;30.08;;;3.70;99.90;;;;;;5064150;28;20067;-73
2024/02/28 04:04:42;;;;;;;75.25;28.98;;;3.70;99.90;;;;;;5063779;28;20459;-74
2024/02/28 04:07:08;;;;;;;78.93;30.55;;;3.70;99.90;;;;;;5065090;28;20031;-72
2024/02/28 04:09:33;;;;;;;75.63;29.75;;;3.70;99.90;;;;;;5065039;28;20064;-74
2024/02/28 04:11:59;;;;;;;75.20;27.80;;;3.70;99.90;;;;;;5064886;28;20039;-74
2024/02/28 04:14:24;;;;;;;75.20;28.98;;;3.70;99.90;;;;;;5065005;28;20088;-73
2024/02/28 04:16:50;;;;;;;69.28;27.92;;;3.70;99.90;;;;;;5064632;28;20036;-73
2024/02/28 04:19:16;;;;;;;76.97;29.85;;;3.60;99.90;;;;;;5064625;28;20120;-73
2024/02/28 04:21:41;;;;;;;74.55;29.60;;;3.60;99.90;;;;;;5064932;28;20021;-73
2024/02/28 04:24:07;;;;;;;78.15;28.90;;;3.60;99.90;;;;;;5062783;28;20033;-73
2024/02/28 04:26:33;;;;;;;72.72;29.05;;;3.50;99.90;;;;;;5063394;28;20032;-73
2024/02/28 04:29:01;;;;;;;80.82;29.38;;;3.50;99.90;;;;;;5064403;28;20013;-72
2024/02/28 04:31:26;;;;;;;71.68;27.48;;;3.50;99.90;;;;;;5064436;28;20056;-73
2024/02/28 04:33:52;;;;;;;73.25;28.20;;;3.40;99.90;;;;;;5064426;28;20667;-74
2024/02/28 04:36:18;;;;;;;81.00;29.65;;;3.40;99.90;;;;;;5063429;28;20021;-73
2024/02/28 04:38:43;;;;;;;73.72;28.52;;;3.30;99.90;;;;;;5062336;28;20036;-73
2024/02/28 04:41:09;;;;;;;75.00;27.83;;;3.30;99.90;;;;;;5061690;28;20051;-72
2024/02/28 04:43:34;;;;;;;75.35;29.33;;;3.20;99.90;;;;;;5061436;28;20029;-74
2024/02/28 04:46:02;;;;;;;88.30;30.55;;;3.30;99.90;;;;;;5062670;28;20057;-72
2024/02/28 04:48:28;;;;;;;79.30;29.27;;;3.20;99.90;;;;;;5060600;28;20028;-73
2024/02/28 04:50:54;;;;;;;76.07;29.08;;;3.20;99.90;;;;;;5062879;28;20021;-73
2024/02/28 04:53:20;;;;;;;80.47;29.73;;;3.20;99.90;;;;;;5060386;28;20025;-73
2024/02/28 04:55:45;;;;;;;78.03;30.67;;;3.30;99.90;;;;;;5063164;28;20021;-74
2024/02/28 04:58:11;;;;;;;82.18;30.23;;;3.20;99.90;;;;;;5062127;28;20426;-72
2024/02/28 05:00:37;;;;;;;79.20;30.55;;;3.10;99.90;;;;;;5058537;28;20040;-73
2024/02/28 05:03:02;;;;;;;82.95;30.98;;;3.20;99.90;;;;;;5062465;28;20043;-74
2024/02/28 05:05:28;;;;;;;81.93;31.38;;;3.10;99.90;;;;;;5061952;28;20088;-73
2024/02/28 05:07:53;;;;;;;79.30;30.33;;;3.10;99.90;;;;;;5060471;28;20087;-72
2024/02/28 05:10:19;;;;;;;82.78;32.13;;;3.10;99.90;;;;;;5059858;28;20041;-73
2024/02/28 05:12:45;;;;;;;79.25;30.55;;;3.20;99.90;;;;;;5063847;28;20106;-72
2024/02/28 05:15:10;;;;;;;87.55;32.08;;;3.10;99.90;;;;;;5063137;28;20036;-72
2024/02/28 05:17:36;;;;;;;83.65;30.58;;;3.20;99.90;;;;;;5062120;28;20025;-72
2024/02/28 05:20:01;;;;;;;87.90;32.38;;;3.20;99.90;;;;;;5062170;28;20036;-73
2024/02/28 05:22:27;;;;;;;92.22;32.70;;;3.10;99.90;;;;;;5063793;28;20548;-73
2024/02/28 05:24:53;;;;;;;91.15;33.90;;;3.20;99.90;;;;;;5062153;28;20089;-74
2024/02/28 05:27:19;;;;;;;80.50;31.02;;;3.10;99.90;;;;;;5062286;28;20071;-73
2024/02/28 05:29:45;;;;;;;84.07;31.33;;;3.10;99.90;;;;;;5062284;28;20029;-72
2024/02/28 05:32:11;;;;;;;82.88;32.20;;;3.10;99.90;;;;;;5062133;28;20028;-73
2024/02/28 05:34:36;;;;;;;86.10;32.05;;;3.10;99.90;;;;;;5063290;28;20027;-73
2024/02/28 05:37:02;;;;;;;87.47;35.03;;;3.00;99.90;;;;;;5063895;28;20096;-72
2024/02/28 05:39:29;;;;;;;88.38;33.90;;;3.00;99.90;;;;;;5062402;28;20045;-72
2024/02/28 05:41:54;;;;;;;92.25;33.65;;;3.00;99.90;;;;;;5061284;28;20029;-74
2024/02/28 05:44:20;;;;;;;96.45;35.65;;;2.90;99.90;;;;;;5063443;28;20031;-73
2024/02/28 05:46:46;;;;;;;95.00;35.38;;;2.90;99.90;;;;;;5061823;28;20108;-74
2024/02/28 05:49:11;;;;;;;96.00;36.83;;;2.90;99.90;;;;;;5063042;28;20029;-73
2024/02/28 05:51:37;;;;;;;109.50;36.47;;;2.90;99.90;;;;;;5063324;28;20029;-74
2024/02/28 05:54:03;;;;;;;94.90;36.70;;;2.80;99.90;;;;;;5062925;28;20056;-75
2024/02/28 05:56:30;;;;;;;98.43;37.30;;;2.80;99.90;;;;;;5062803;28;20021;-74
2024/02/28 05:58:55;;;;;;;109.93;38.58;;;2.80;99.90;;;;;;5059361;28;20024;-73
2024/02/28 06:01:21;;;;;;;117.10;40.67;;;2.80;99.90;;;;;;5059371;28;20051;-74
2024/02/28 06:03:48;;;;;;;127.88;42.40;;;2.80;99.90;;;;;;5058337;28;20029;-72
2024/02/28 06:06:13;;;;;;;124.68;42.25;;;2.80;99.90;;;;;;5060543;28;20021;-73
2024/02/28 06:08:43;;;;;;;126.45;44.30;;;2.80;99.90;;;;;;5059116;28;20048;-74
2024/02/28 06:11:09;;;;;;;125.22;42.17;;;2.80;99.90;;;;;;5059347;28;20021;-73
2024/02/28 06:13:35;;;;;;;124.80;44.70;;;2.80;99.90;;;;;;5060770;28;20379;-73
2024/02/28 06:16:01;;;;;;;130.55;42.50;;;2.70;99.90;;;;;;5061363;28;20028;-74
2024/02/28 06:18:28;;;;;;;129.68;44.88;;;2.80;99.90;;;;;;5056995;28;20025;-73
2024/02/28 06:20:54;;;;;;;135.05;44.22;;;2.70;99.90;;;;;;5057100;28;20082;-73
2024/02/28 06:23:21;;;;;;;123.90;40.88;;;2.70;99.90;;;;;;5060885;28;20033;-73
2024/02/28 06:25:46;;;;;;;129.85;40.83;;;2.60;99.90;;;;;;5062716;28;20017;-74
2024/02/28 06:28:12;;;;;;;118.68;36.92;;;2.60;99.90;;;;;;5062276;28;20076;-73
2024/02/28 06:30:38;;;;;;;131.18;40.05;;;2.50;99.90;;;;;;5060414;28;20025;-73
2024/02/28 06:33:04;;;;;;;127.25;37.05;;;2.50;99.90;;;;;;5060371;28;20044;-75
2024/02/28 06:35:30;;;;;;;137.38;37.92;;;2.50;99.90;;;;;;5057654;28;20064;-74
2024/02/28 06:37:55;;;;;;;177.10;44.90;;;2.40;99.90;;;;;;5059756;28;20028;-73
2024/02/28 06:40:21;;;;;;;148.95;38.67;;;2.40;99.90;;;;;;5058982;28;20072;-74
2024/02/28 06:42:46;;;;;;;178.77;46.13;;;2.40;99.90;;;;;;5061119;28;20017;-72
2024/02/28 06:45:12;;;;;;;193.25;48.30;;;2.30;99.90;;;;;;5061479;28;20033;-74
2024/02/28 06:47:38;;;;;;;196.18;46.25;;;2.30;99.90;;;;;;5060810;28;20036;-73
2024/02/28 06:50:05;;;;;;;182.00;46.47;;;2.30;99.90;;;;;;5062349;28;20020;-76
2024/02/28 06:52:31;;;;;;;201.52;47.25;;;2.30;99.90;;;;;;5062324;28;20017;-75
2024/02/28 06:54:56;;;;;;;199.65;49.15;;;2.30;99.90;;;;;;5062139;28;20021;-74
2024/02/28 06:57:22;;;;;;;187.73;46.33;;;2.30;99.90;;;;;;5062071;28;20013;-73
2024/02/28 06:59:48;;;;;;;188.20;45.10;;;2.30;99.90;;;;;;5057977;28;20055;-72
2024/02/28 07:02:14;;;;;;;198.35;47.25;;;2.20;99.90;;;;;;5061210;28;20017;-74
2024/02/28 07:04:40;;;;;;;211.00;45.90;;;2.30;99.90;;;;;;5060072;28;20051;-73
2024/02/28 07:07:06;;;;;;;211.45;49.67;;;2.30;99.90;;;;;;5055185;28;20025;-76
2024/02/28 07:09:32;;;;;;;219.05;50.88;;;2.30;99.90;;;;;;5055448;28;20049;-73
2024/02/28 07:12:01;;;;;;;221.43;49.38;;;2.30;99.90;;;;;;5059810;28;20053;-73
2024/02/28 07:14:27;;;;;;;232.93;53.72;;;2.30;99.90;;;;;;5060099;28;20029;-72
2024/02/28 07:16:53;;;;;;;258.88;56.25;;;2.30;99.90;;;;;;5059614;28;20033;-73
2024/02/28 07:19:18;;;;;;;262.92;56.22;;;2.30;99.90;;;;;;5056282;28;20033;-73
2024/02/28 07:21:44;;;;;;;268.25;59.05;;;2.40;99.90;;;;;;5059849;28;20084;-73
2024/02/28 07:24:10;;;;;;;261.45;57.20;;;2.40;99.90;;;;;;5059252;28;20090;-73
2024/02/28 07:26:36;;;;;;;275.08;58.53;;;2.40;99.90;;;;;;5060362;28;20033;-74
2024/02/28 07:29:02;;;;;;;263.17;57.03;;;2.50;99.90;;;;;;5059337;28;20036;-73
2024/02/28 07:31:27;;;;;;;260.63;58.35;;;2.50;99.90;;;;;;5061422;28;20049;-74
2024/02/28 07:33:53;;;;;;;271.58;60.13;;;2.50;99.90;;;;;;5059681;28;20095;-73
2024/02/28 07:36:19;;;;;;;277.58;63.22;;;2.50;99.90;;;;;;5055079;28;20045;-71
2024/02/28 07:38:45;;;;;;;275.33;59.58;;;2.50;99.90;;;;;;5055083;28;20033;-72
2024/02/28 07:41:10;;;;;;;261.70;55.78;;;2.50;99.90;;;;;;5058964;28;20066;-75
2024/02/28 07:43:39;;;;;;;251.60;56.88;;;2.50;99.90;;;;;;5060478;28;20041;-73
2024/02/28 07:46:11;;;;;;;261.77;58.10;;;2.50;99.90;;;;;;5059788;28;20037;-73
2024/02/28 07:48:39;;;;;;;259.73;56.45;;;2.50;99.90;;;;;;5061670;28;20025;-73
2024/02/28 07:51:06;;;;;;;261.65;59.65;;;2.40;99.90;;;;;;5056977;28;20079;-73
2024/02/28 07:53:32;;;;;;;254.55;60.00;;;2.40;99.90;;;;;;5062657;28;20065;-72
2024/02/28 07:55:57;;;;;;;260.25;63.45;;;2.40;99.90;;;;;;5060700;28;20032;-72
2024/02/28 07:58:23;;;;;;;253.40;57.83;;;2.40;99.90;;;;;;5061339;28;20037;-72
2024/02/28 08:00:50;;;;;;;262.35;61.25;;;2.40;99.90;;;;;;5060312;28;20047;-73
2024/02/28 08:03:16;;;;;;;239.60;55.08;;;2.40;99.90;;;;;;5054827;28;20036;-75
2024/02/28 08:05:43;;;;;;;222.13;51.40;;;2.40;99.90;;;;;;5059001;28;20021;-73
2024/02/28 08:08:09;;;;;;;221.45;53.15;;;2.40;99.90;;;;;;5061332;28;20067;-72
2024/02/28 08:10:35;;;;;;;230.60;57.63;;;2.30;99.90;;;;;;5063505;28;20803;-73
2024/02/28 08:13:01;;;;;;;208.95;51.70;;;2.40;99.90;;;;;;5062675;28;20311;-72
2024/02/28 08:15:27;;;;;;;198.82;48.97;;;2.40;99.90;;;;;;5064413;28;20495;-73
2024/02/28 08:17:53;;;;;;;172.70;47.65;;;2.50;99.90;;;;;;5063814;28;20033;-73
2024/02/28 08:20:19;;;;;;;159.70;45.15;;;2.50;99.90;;;;;;5064043;28;20116;-73
2024/02/28 08:22:46;;;;;;;147.20;40.15;;;2.60;99.90;;;;;;5065038;28;20028;-74
2024/02/28 08:25:11;;;;;;;151.95;41.83;;;2.60;99.90;;;;;;5064860;28;20031;-73
2024/02/28 08:27:38;;;;;;;135.15;41.40;;;2.70;99.90;;;;;;5063304;28;20100;-73
2024/02/28 08:30:05;;;;;;;136.88;41.90;;;2.70;99.90;;;;;;5063699;28;20465;-73
2024/02/28 08:32:31;;;;;;;122.65;38.03;;;2.80;99.90;;;;;;5063203;28;20083;-74
2024/02/28 08:34:57;;;;;;;133.77;40.47;;;2.90;99.90;;;;;;5064578;28;20033;-72
2024/02/28 08:37:23;;;;;;;131.32;40.88;;;3.00;99.90;;;;;;5064797;28;20390;-73
2024/02/28 08:39:49;;;;;;;133.82;42.42;;;3.10;99.90;;;;;;5063006;28;20029;-72
2024/02/28 08:42:14;;;;;;;162.63;49.83;;;3.10;99.90;;;;;;5064211;28;20025;-74
2024/02/28 08:44:40;;;;;;;145.85;46.22;;;3.20;99.90;;;;;;5064625;28;20104;-72
2024/02/28 08:47:09;;;;;;;117.68;38.78;;;3.20;99.90;;;;;;5063297;28;20025;-72
2024/02/28 08:49:35;;;;;;;127.35;42.50;;;3.20;99.90;;;;;;5062825;28;20088;-75
2024/02/28 08:52:00;;;;;;;114.35;40.15;;;3.20;99.90;;;;;;5064634;28;20033;-73
2024/02/28 08:54:26;;;;;;;114.70;38.80;;;3.20;99.90;;;;;;5063829;28;20194;-73
2024/02/28 08:56:52;;;;;;;108.90;38.25;;;3.20;99.90;;;;;;5064006;28;20064;-73
2024/02/28 08:59:17;;;;;;;92.35;33.78;;;3.30;99.90;;;;;;5064188;28;20718;-74
2024/02/28 09:01:43;;;;;;;94.72;34.22;;;3.30;99.90;;;;;;5064090;28;20029;-72
2024/02/28 09:04:08;;;;;;;97.10;34.30;;;3.30;99.90;;;;;;5063689;28;20029;-74
2024/02/28 09:06:34;;;;;;;96.32;33.88;;;3.30;99.90;;;;;;5064225;28;20029;-73
2024/02/28 09:08:59;;;;;;;87.50;32.75;;;3.40;99.90;;;;;;5063070;28;20045;-73
2024/02/28 09:11:25;;;;;;;74.88;31.63;;;3.40;99.90;;;;;;5063421;28;20067;-72
2024/02/28 09:13:51;;;;;;;87.82;35.38;;;3.40;99.90;;;;;;5063908;28;20076;-73
2024/02/28 09:16:17;;;;;;;83.43;33.92;;;3.40;99.90;;;;;;5061786;28;20024;-74
2024/02/28 09:18:42;;;;;;;85.30;33.35;;;3.40;99.90;;;;;;5062799;28;20050;-73
2024/02/28 09:21:08;;;;;;;73.25;30.80;;;3.40;99.90;;;;;;5063918;28;20075;-72
2024/02/28 09:23:34;;;;;;;85.18;33.63;;;3.50;99.90;;;;;;5063626;28;20025;-73
2024/02/28 09:26:03;;;;;;;70.10;28.92;;;3.40;99.90;;;;;;5063523;28;20082;-73
2024/02/28 09:28:29;;;;;;;80.32;31.80;;;3.40;99.90;;;;;;5063775;28;20029;-73
2024/02/28 09:30:55;;;;;;;79.18;29.80;;;3.40;99.90;;;;;;5063309;28;20357;-73
2024/02/28 09:33:20;;;;;;;81.40;33.05;;;3.40;99.90;;;;;;5063646;28;20374;-74
2024/02/28 09:35:46;;;;;;;86.35;34.05;;;3.40;99.90;;;;;;5063710;28;20397;-72
2024/02/28 09:38:11;;;;;;;85.82;34.25;;;3.50;99.90;;;;;;5062662;28;20377;-73
2024/02/28 09:40:38;;;;;;;93.13;35.45;;;3.50;99.90;;;;;;5063278;28;20168;-75
2024/02/28 09:43:04;;;;;;;92.50;36.75;;;3.50;99.90;;;;;;5063324;28;20409;-73
2024/02/28 09:45:31;;;;;;;98.95;38.50;;;3.60;99.90;;;;;;5063279;28;20025;-73
2024/02/28 09:48:03;;;;;;;104.10;40.53;;;3.70;99.90;;;;;;5063025;28;20039;-74
2024/02/28 09:50:29;;;;;;;97.82;37.00;;;3.80;99.90;;;;;;5063052;28;20032;-73
2024/02/28 09:52:56;;;;;;;90.53;36.70;;;3.80;99.90;;;;;;5062991;28;20028;-74
2024/02/28 09:55:22;;;;;;;87.88;35.00;;;3.80;99.90;;;;;;5063135;28;20791;-73
2024/02/28 09:57:49;;;;;;;87.32;35.22;;;3.90;99.90;;;;;;5062961;28;20044;-73
2024/02/28 10:00:19;;;;;;;91.32;34.75;;;3.80;99.90;;;;;;5062992;28;20052;-73
2024/02/28 10:02:47;;;;;;;79.55;33.38;;;3.90;99.90;;;;;;5062664;28;20047;-73
2024/02/28 10:05:13;;;;;;;78.50;32.30;;;3.80;99.90;;;;;;5062565;28;20013;-73
2024/02/28 10:07:39;;;;;;;82.53;31.40;;;3.90;99.90;;;;;;5062601;28;20082;-74
2024/02/28 10:10:07;;;;;;;80.38;33.42;;;3.90;99.90;;;;;;5062920;28;20057;-74
2024/02/28 10:12:33;;;;;;;92.55;35.42;;;4.00;99.90;;;;;;5061182;28;20025;-75
2024/02/28 10:15:00;;;;;;;85.57;33.35;;;4.00;99.90;;;;;;5062609;28;20044;-73
2024/02/28 10:17:27;;;;;;;82.43;32.05;;;4.00;99.90;;;;;;5062491;28;20041;-73
2024/02/28 10:19:53;;;;;;;82.55;33.60;;;4.00;99.90;;;;;;5061123;28;20037;-73
2024/02/28 10:22:18;;;;;;;86.40;31.17;;;4.00;99.90;;;;;;5062714;28;20024;-74
2024/02/28 10:24:44;;;;;;;82.93;34.33;;;4.00;99.90;;;;;;5062769;28;20049;-74
2024/02/28 10:27:10;;;;;;;77.55;32.72;;;4.10;99.90;;;;;;5061050;28;20036;-74
2024/02/28 10:29:35;;;;;;;93.28;34.55;;;4.10;99.90;;;;;;5062769;28;20029;-72
2024/02/28 10:32:02;;;;;;;80.75;33.22;;;4.20;99.90;;;;;;5062472;28;20033;-71
2024/02/28 10:34:29;;;;;;;82.88;32.78;;;4.30;99.90;;;;;;5062258;28;20458;-74
2024/02/28 10:36:57;;;;;;;85.90;33.10;;;4.30;99.90;;;;;;5062585;28;20044;-74
2024/02/28 10:39:26;;;;;;;76.38;30.75;;;4.40;99.90;;;;;;5062080;28;20054;-73
2024/02/28 10:41:53;;;;;;;83.85;31.33;;;4.40;99.90;;;;;;5062399;28;20032;-74
2024/02/28 10:44:20;;;;;;;79.15;31.55;;;4.50;99.90;;;;;;5060856;28;20025;-73
2024/02/28 10:46:49;;;;;;;92.28;36.35;;;4.60;99.90;;;;;;5060293;28;20036;-76
2024/02/28 10:49:15;;;;;;;88.07;35.05;;;4.60;99.90;;;;;;5061112;28;20025;-75
2024/02/28 10:51:45;;;;;;;75.15;28.60;;;4.70;99.90;;;;;;5062229;28;20093;-74
2024/02/28 10:54:12;;;;;;;73.82;28.90;;;4.80;99.90;;;;;;5061766;28;20053;-75
2024/02/28 10:56:42;;;;;;;76.85;29.52;;;4.80;99.90;;;;;;5062103;28;20070;-74
2024/02/28 10:59:09;;;;;;;69.60;27.77;;;4.70;99.90;;;;;;5062115;28;20021;-71
2024/02/28 11:01:36;;;;;;;81.85;28.33;;;4.80;99.90;;;;;;5061549;28;20036;-75
2024/02/28 11:04:03;;;;;;;77.78;30.75;;;4.90;99.90;;;;;;5062564;28;20037;-75
2024/02/28 11:06:29;;;;;;;67.40;27.13;;;4.90;99.90;;;;;;5061604;28;20056;-73
2024/02/28 11:08:56;;;;;;;77.03;29.52;;;4.90;99.90;;;;;;5060430;28;20037;-75
2024/02/28 11:11:22;;;;;;;80.65;31.30;;;5.00;99.90;;;;;;5061341;28;20064;-75
2024/02/28 11:13:56;;;;;;;76.18;30.48;;;5.10;99.90;;;;;;5062254;28;20097;-72
2024/02/28 11:16:33;;;;;;;80.13;30.27;;;5.10;99.90;;;;;;5062007;28;20033;-73
2024/02/28 11:18:59;;;;;;;81.28;31.13;;;5.30;99.90;;;;;;5056109;28;20033;-74
2024/02/28 11:21:28;;;;;;;74.13;29.88;;;5.30;99.90;;;;;;5056799;28;20045;-73
2024/02/28 11:24:01;;;;;;;78.32;29.85;;;5.30;99.90;;;;;;5059023;28;20035;-72
2024/02/28 11:26:27;;;;;;;73.72;30.77;;;5.40;99.90;;;;;;5061808;28;20033;-72
2024/02/28 11:28:56;;;;;;;81.65;29.63;;;5.40;99.90;;;;;;5065681;28;20013;-75
2024/02/28 11:31:22;;;;;;;80.85;29.60;;;5.50;99.90;;;;;;5063073;28;20051;-74
2024/02/28 11:33:47;;;;;;;79.00;28.25;;;5.50;99.90;;;;;;5066078;28;20029;-73
2024/02/28 11:36:14;;;;;;;74.10;28.25;;;5.50;99.90;;;;;;5065696;28;20037;-73
2024/02/28 11:38:40;;;;;;;87.72;32.28;;;5.60;99.90;;;;;;5065599;28;20021;-75
2024/02/28 11:41:06;;;;;;;87.72;32.38;;;5.70;99.90;;;;;;5065936;28;20075;-73
2024/02/28 11:43:32;;;;;;;91.32;33.60;;;5.70;99.90;;;;;;5064158;28;20446;-74
2024/02/28 11:45:59;;;;;;;92.20;36.72;;;5.70;99.90;;;;;;5063596;28;20049;-73
2024/02/28 11:48:26;;;;;;;91.30;35.47;;;5.70;99.90;;;;;;5065413;28;20032;-73
2024/02/28 11:50:52;;;;;;;97.13;36.10;;;5.80;99.90;;;;;;5060372;28;20085;-73
2024/02/28 11:53:18;;;;;;;103.45;39.60;;;5.90;99.90;;;;;;5055968;28;20032;-74
2024/02/28 11:55:47;;;;;;;96.35;34.55;;;5.90;99.90;;;;;;5061413;28;20583;-74
2024/02/28 11:58:13;;;;;;;92.43;35.17;;;6.10;99.90;;;;;;5062765;28;20087;-74
2024/02/28 12:00:49;;;;;;;101.53;39.22;;;6.10;99.90;;;;;;5059425;28;20049;-74
2024/02/28 12:03:23;;;;;;;102.25;38.00;;;6.20;99.90;;;;;;5062394;28;20033;-74
2024/02/28 12:05:49;;;;;;;;;;;6.20;99.90;;;;;;5058754;28;20498;-73
2024/02/28 12:08:15;;;;;;;102.50;35.70;;;6.10;99.90;;;;;;5059367;28;19916;-73
2024/02/28 12:10:41;;;;;;;104.32;36.30;;;6.20;99.90;;;;;;5058427;28;20029;-74
2024/02/28 12:13:07;;;;;;;102.10;37.00;;;6.10;99.90;;;;;;5060979;28;20025;-74
2024/02/28 12:15:33;;;;;;;115.93;38.20;;;6.10;99.90;;;;;;5061352;28;20032;-74
2024/02/28 12:17:58;;;;;;;105.72;37.20;;;6.10;99.90;;;;;;5063342;28;20028;-73
2024/02/28 12:20:24;;;;;;;105.57;38.60;;;6.10;99.90;;;;;;5064822;28;20064;-74
2024/02/28 12:22:49;;;;;;;103.25;38.13;;;6.10;99.90;;;;;;5065110;28;20147;-74
2024/02/28 12:25:15;;;;;;;115.70;41.08;;;6.00;99.90;;;;;;5062947;28;20033;-73
2024/02/28 12:27:41;;;;;;;121.97;41.78;;;6.10;99.90;;;;;;5062994;28;20055;-75